Time;durP1;ratioP1;P1;durP2;ratioP2;P2;SDS_P1;SDS_P2;PMS_P1;PMS_P2;Temp;Humidity;BMP_temperature;BMP_pressure;BME280_temperature;BME280_humidity;BME280_pressure;Samples;Min_cycle;Max_cycle;Signal;HPM_P1;HPM_P2
2022/06/08 00:00:17;;;;;;;9.33;8.53;;;;;;;20.73;73.12;99002.47;5056309;28;20198;-63
2022/06/08 00:02:46;;;;;;;10.23;9.27;;;;;;;20.71;73.96;99005.09;5060864;28;20687;-63
2022/06/08 00:05:13;;;;;;;11.63;9.80;;;;;;;20.67;74.36;99008.75;5065788;28;21003;-62
2022/06/08 00:07:40;;;;;;;11.30;10.10;;;;;;;20.62;74.81;99001.97;5066509;28;20199;-63
2022/06/08 00:10:08;;;;;;;11.07;9.97;;;;;;;20.52;75.45;98999.63;5073036;28;20278;-63
2022/06/08 00:12:37;;;;;;;11.33;10.27;;;;;;;20.52;75.62;98998.78;5073080;28;20237;-63
2022/06/08 00:15:05;;;;;;;10.87;9.97;;;;;;;20.42;76.11;98992.16;5057961;28;20188;-62
2022/06/08 00:17:32;;;;;;;11.07;9.97;;;;;;;20.36;76.54;98990.59;5072768;28;20195;-63
2022/06/08 00:19:59;;;;;;;10.97;10.03;;;;;;;20.28;76.95;98987.34;5072769;28;20209;-63
2022/06/08 00:22:26;;;;;;;11.60;10.40;;;;;;;20.26;77.00;98981.34;5072442;28;20195;-63
2022/06/08 00:24:52;;;;;;;11.60;10.60;;;;;;;20.26;76.75;98988.31;5072725;28;20207;-63
2022/06/08 00:27:19;;;;;;;11.47;10.37;;;;;;;20.16;77.37;98987.69;5072486;28;20200;-63
2022/06/08 00:29:48;;;;;;;12.30;9.93;;;;;;;20.07;77.53;98994.94;5072547;28;20654;-63
2022/06/08 00:32:14;;;;;;;11.60;10.50;;;;;;;19.99;77.81;98987.38;5058503;28;20570;-63
2022/06/08 00:34:41;;;;;;;12.37;11.17;;;;;;;20.00;78.10;98989.06;5071752;28;20817;-63
2022/06/08 00:37:08;;;;;;;11.57;10.47;;;;;;;19.99;78.05;98987.38;5072610;28;20206;-63
2022/06/08 00:39:35;;;;;;;14.20;10.83;;;;;;;19.92;78.26;98988.44;5072648;28;20200;-63
2022/06/08 00:42:04;;;;;;;12.77;10.17;;;;;;;19.81;78.78;98988.75;5072488;28;20599;-62
2022/06/08 00:44:34;;;;;;;11.67;10.67;;;;;;;19.70;78.97;98988.19;5072357;28;20219;-63
2022/06/08 00:47:05;;;;;;;12.37;10.37;;;;;;;19.64;79.29;98990.97;5072242;28;20270;-63
2022/06/08 00:49:34;;;;;;;11.00;10.07;;;;;;;19.60;79.51;98989.38;5072407;28;20191;-62
2022/06/08 00:52:02;;;;;;;10.77;9.53;;;;;;;19.57;79.73;98978.16;5072289;28;20590;-62
2022/06/08 00:54:34;;;;;;;11.07;10.00;;;;;;;19.55;79.63;98983.44;5056660;28;20210;-63
2022/06/08 00:57:09;;;;;;;11.53;10.37;;;;;;;19.52;79.57;98988.72;5058554;28;20192;-62
2022/06/08 00:59:39;;;;;;;11.90;10.70;;;;;;;19.24;79.81;98951.25;5054462;28;20195;-62
2022/06/08 01:02:07;;;;;;;12.47;10.57;;;;;;;19.41;80.19;98991.63;5051752;28;20579;-62
2022/06/08 01:04:34;;;;;;;11.35;10.32;;;;;;;19.37;80.45;98991.72;5051314;28;20462;-63
2022/06/08 01:07:01;;;;;;;10.53;9.63;;;;;;;19.31;80.65;98991.91;5062162;28;20199;-63
2022/06/08 01:09:31;;;;;;;10.93;10.03;;;;;;;19.34;80.83;98994.38;5071305;28;20230;-63
2022/06/08 01:12:01;;;;;;;11.00;9.90;;;;;;;19.33;80.82;98987.50;5071747;28;20188;-63
2022/06/08 01:14:28;;;;;;;11.47;10.17;;;;;;;19.30;80.63;98991.03;5071699;28;20256;-62
2022/06/08 01:17:02;;;;;;;12.03;9.63;;;;;;;19.30;80.11;98991.03;5071630;28;20199;-63
2022/06/08 01:19:34;;;;;;;11.80;9.13;;;;;;;19.25;80.16;98990.31;5071341;28;20217;-63
2022/06/08 01:22:04;;;;;;;10.83;9.73;;;;;;;19.18;79.70;98991.34;5071575;28;20203;-63
2022/06/08 01:24:32;;;;;;;10.43;9.05;;;;;;;19.14;79.99;98989.75;5071515;28;20435;-64
2022/06/08 01:27:17;;;;;;;9.50;8.63;;;;;;;19.04;79.88;98993.47;5070600;28;20198;-63
2022/06/08 01:30:00;;;;;;;10.60;9.07;;;;;;;19.02;79.64;98992.66;5071363;28;20248;-62
2022/06/08 01:32:32;;;;;;;10.63;9.57;;;;;;;18.85;79.88;98966.19;5071331;28;20199;-62
2022/06/08 01:35:19;;;;;;;8.47;7.77;;;;;;;18.89;80.45;98999.06;5071406;28;20202;-63
2022/06/08 01:38:01;;;;;;;9.43;8.23;;;;;;;18.95;80.07;98990.25;5071629;28;20210;-63
2022/06/08 01:40:58;;;;;;;9.13;8.17;;;;;;;18.85;79.92;98992.22;5071155;28;20203;-63
2022/06/08 01:43:36;;;;;;;9.30;8.33;;;;;;;18.86;79.82;98996.53;5071077;28;20195;-62
2022/06/08 01:46:17;;;;;;;9.07;7.87;;;;;;;18.87;78.92;99000.84;5053353;28;20274;-62
2022/06/08 01:49:11;;;;;;;8.17;7.37;;;;;;;18.85;78.72;98994.81;5050895;28;20283;-62
2022/06/08 01:51:50;;;;;;;8.03;7.23;;;;;;;18.88;78.48;98992.13;5051475;28;20196;-63
2022/06/08 01:54:32;;;;;;;7.67;7.00;;;;;;;18.87;78.77;98994.78;5051358;28;20242;-62
2022/06/08 01:57:10;;;;;;;8.15;7.45;;;;;;;18.93;79.16;98990.28;5049995;28;20557;-63
2022/06/08 01:59:44;;;;;;;7.30;6.70;;;;;;;18.93;78.92;98990.28;5051336;28;20203;-63
2022/06/08 02:02:21;;;;;;;7.53;6.83;;;;;;;19.00;78.58;98991.84;5051043;28;20208;-63
2022/06/08 02:04:55;;;;;;;7.03;6.43;;;;;;;18.97;78.41;98980.66;5051005;28;20211;-63
2022/06/08 02:07:32;;;;;;;7.47;6.73;;;;;;;18.95;78.65;98993.72;5051272;28;20200;-63
2022/06/08 02:10:08;;;;;;;10.00;9.00;;;;;;;18.93;78.63;98987.66;5057246;28;20230;-63
2022/06/08 02:12:40;;;;;;;8.93;8.03;;;;;;;18.93;79.05;98987.66;5070782;28;20249;-63
2022/06/08 02:15:13;;;;;;;11.90;9.13;;;;;;;18.83;79.41;98981.00;5070601;28;20195;-63
2022/06/08 02:17:44;;;;;;;13.27;12.05;;;;;;;19.00;79.30;98990.97;5069845;28;20813;-64
2022/06/08 02:20:18;;;;;;;14.77;13.30;;;;;;;19.03;79.35;98986.56;5067693;28;20337;-62
2022/06/08 02:22:50;;;;;;;19.53;17.43;;;;;;;18.95;79.37;98982.44;5070821;28;20200;-62
2022/06/08 02:25:22;;;;;;;20.37;18.27;;;;;;;18.86;79.31;98973.13;5070343;28;20215;-62
2022/06/08 02:27:55;;;;;;;21.37;19.13;;;;;;;18.97;78.88;98994.53;5069149;28;20188;-64
2022/06/08 02:30:25;;;;;;;22.70;20.30;;;;;;;18.94;78.85;98989.38;5058896;28;20202;-63
2022/06/08 02:35:46;;;;;;;21.83;18.67;;;;;;;18.94;79.08;98993.75;5069575;28;20191;-63
2022/06/08 02:38:18;;;;;;;19.13;17.17;;;;;;;18.95;79.00;98988.50;5070480;28;20187;-64
2022/06/08 02:40:50;;;;;;;19.37;17.37;;;;;;;18.94;78.74;98992.00;5070471;28;20694;-64
2022/06/08 02:43:23;;;;;;;16.33;14.73;;;;;;;18.97;78.18;98996.25;5070439;28;20180;-63
2022/06/08 02:45:57;;;;;;;13.37;12.00;;;;;;;18.92;76.79;98998.13;5070366;28;20289;-63
2022/06/08 02:48:24;;;;;;;13.60;12.20;;;;;;;18.96;76.50;99002.34;5069844;28;20429;-64
2022/06/08 02:50:53;;;;;;;12.93;11.10;;;;;;;18.91;75.44;98999.88;5070569;28;20203;-63
2022/06/08 02:53:50;;;;;;;12.83;11.67;;;;;;;18.85;75.68;99003.50;5070109;28;20658;-64
2022/06/08 02:56:26;;;;;;;11.60;10.53;;;;;;;18.87;75.96;98990.41;5070060;28;20215;-63
2022/06/08 02:58:59;;;;;;;12.80;11.50;;;;;;;18.94;75.72;98997.19;5066002;28;20244;-58
2022/06/08 03:01:33;;;;;;;13.27;11.20;;;;;;;18.98;76.05;98995.38;5067172;28;20187;-57
2022/06/08 03:04:06;;;;;;;15.00;12.77;;;;;;;19.02;75.81;98984.84;5069365;28;20198;-57
2022/06/08 03:06:38;;;;;;;15.90;14.37;;;;;;;19.20;74.83;98991.34;5068864;28;20211;-62
2022/06/08 03:09:07;;;;;;;14.52;13.13;;;;;;;19.40;74.16;98997.72;5068502;28;20429;-62
2022/06/08 03:11:40;;;;;;;13.47;12.17;;;;;;;19.53;72.96;98995.63;5069197;28;20646;-62
2022/06/08 03:14:11;;;;;;;12.67;11.27;;;;;;;19.54;72.95;98993.88;5067079;28;20270;-62
2022/06/08 03:16:40;;;;;;;13.10;11.87;;;;;;;19.59;72.98;98984.19;5069453;28;20500;-64
2022/06/08 03:19:08;;;;;;;16.60;13.30;;;;;;;19.60;73.35;98988.50;5070376;28;20191;-63
2022/06/08 03:21:36;;;;;;;16.50;14.40;;;;;;;19.64;73.16;98990.16;5055264;28;20261;-63
2022/06/08 03:24:04;;;;;;;14.83;13.43;;;;;;;19.65;72.90;98987.47;5067510;28;20187;-63
2022/06/08 03:26:40;;;;;;;13.53;11.67;;;;;;;19.67;72.24;99005.66;5069693;28;20221;-63
2022/06/08 03:29:08;;;;;;;12.67;11.37;;;;;;;19.75;71.84;98999.34;5066966;28;20261;-63
2022/06/08 03:31:34;;;;;;;13.63;12.43;;;;;;;19.87;71.42;99004.22;5069861;28;20191;-62
2022/06/08 03:34:01;;;;;;;14.23;12.77;;;;;;;19.93;71.67;99005.78;5068609;28;20604;-63
2022/06/08 03:36:28;;;;;;;14.10;12.80;;;;;;;19.95;72.00;99002.25;5069918;28;20658;-62
2022/06/08 03:38:55;;;;;;;15.23;13.75;;;;;;;20.02;71.69;99002.94;5068950;28;20502;-63
2022/06/08 03:41:22;;;;;;;18.17;14.53;;;;;;;19.79;72.96;99005.34;5069728;28;20269;-63
2022/06/08 03:43:50;;;;;;;15.53;13.00;;;;;;;19.81;73.00;99008.75;5069971;28;20199;-63
2022/06/08 03:46:17;;;;;;;15.90;14.10;;;;;;;19.79;73.41;99015.75;5070067;28;20219;-63
2022/06/08 03:48:45;;;;;;;16.93;14.70;;;;;;;19.70;73.74;99022.09;5069516;28;20685;-61
2022/06/08 03:51:15;;;;;;;18.17;14.50;;;;;;;19.62;74.13;99010.16;5071894;28;20195;-62
2022/06/08 03:53:45;;;;;;;18.27;15.30;;;;;;;19.69;74.05;99004.75;5073235;28;20199;-64
2022/06/08 03:56:14;;;;;;;17.77;15.87;;;;;;;19.86;74.10;99005.09;5073432;28;20635;-63
2022/06/08 03:58:41;;;;;;;17.77;15.63;;;;;;;19.95;73.67;99009.19;5073479;28;20708;-63
2022/06/08 04:01:10;;;;;;;14.70;13.32;;;;;;;20.03;72.94;99020.25;5072071;28;20491;-62
2022/06/08 04:03:36;;;;;;;19.23;13.43;;;;;;;20.06;72.05;99011.50;5073127;28;20690;-64
2022/06/08 04:06:03;;;;;;;12.37;10.93;;;;;;;20.18;70.83;99022.44;5072876;28;20353;-64
2022/06/08 04:08:31;;;;;;;10.77;9.67;;;;;;;20.20;70.33;99032.81;5072745;28;20226;-63
2022/06/08 04:10:58;;;;;;;13.67;10.03;;;;;;;20.25;70.12;99030.94;5073276;28;20191;-63
2022/06/08 04:13:25;;;;;;;15.43;12.10;;;;;;;20.32;69.69;99025.50;5072800;28;20665;-63
2022/06/08 04:15:52;;;;;;;13.50;12.20;;;;;;;20.40;69.57;99026.13;5072979;28;20395;-63
2022/06/08 04:18:22;;;;;;;10.47;9.37;;;;;;;20.37;69.18;99021.00;5072916;28;20233;-63
2022/06/08 04:20:52;;;;;;;13.33;11.43;;;;;;;20.49;68.71;99022.38;5071872;28;20199;-63
2022/06/08 04:23:21;;;;;;;9.98;8.73;;;;;;;20.49;67.87;99022.38;5071933;28;20429;-64
2022/06/08 04:25:49;;;;;;;8.50;7.47;;;;;;;20.59;66.63;99024.66;5072458;28;20280;-64
2022/06/08 04:28:17;;;;;;;8.23;7.43;;;;;;;20.63;66.55;99032.38;5072826;28;20212;-64
2022/06/08 04:30:44;;;;;;;8.90;8.00;;;;;;;20.65;67.00;99030.56;5072788;28;20539;-62
2022/06/08 04:33:12;;;;;;;9.17;8.27;;;;;;;20.63;66.74;99022.78;5072891;28;20253;-63
2022/06/08 04:35:40;;;;;;;11.43;9.30;;;;;;;20.59;67.26;99001.16;5072479;28;21027;-63
2022/06/08 04:38:07;;;;;;;8.67;7.80;;;;;;;20.85;64.86;99025.56;5072647;28;20188;-62
2022/06/08 04:40:34;;;;;;;9.03;7.27;;;;;;;20.69;65.07;99026.94;5070441;28;20223;-63
2022/06/08 04:43:01;;;;;;;11.23;8.13;;;;;;;20.86;65.00;99035.97;5067407;28;20191;-64
2022/06/08 04:45:28;;;;;;;11.50;8.18;;;;;;;20.98;64.88;99026.88;5071144;28;20521;-65
2022/06/08 04:47:55;;;;;;;9.63;8.33;;;;;;;21.02;64.61;99036.31;5071583;28;20256;-64
2022/06/08 04:50:22;;;;;;;8.23;7.43;;;;;;;21.12;64.50;99035.16;5071424;28;20680;-64
2022/06/08 04:52:50;;;;;;;7.27;6.53;;;;;;;21.04;63.73;99035.34;5069333;28;20188;-63
2022/06/08 04:55:18;;;;;;;9.17;7.63;;;;;;;21.09;64.06;99030.03;5071315;28;20657;-64
2022/06/08 04:57:45;;;;;;;8.57;7.30;;;;;;;21.16;64.10;99040.22;5071419;28;20661;-63
2022/06/08 05:00:16;;;;;;;8.00;6.67;;;;;;;21.18;64.05;99047.97;5071554;28;20192;-64
2022/06/08 05:02:43;;;;;;;10.10;8.23;;;;;;;21.21;63.95;99047.03;5065800;28;20195;-65
2022/06/08 05:05:12;;;;;;;9.93;8.00;;;;;;;21.25;64.20;99049.50;5069442;28;20441;-57
2022/06/08 05:07:39;;;;;;;8.90;8.03;;;;;;;21.36;64.50;99042.16;5071722;28;20563;-57
2022/06/08 05:10:08;;;;;;;9.53;8.10;;;;;;;21.17;64.56;99033.22;5066970;28;20239;-56
2022/06/08 05:12:36;;;;;;;13.73;8.67;;;;;;;21.23;65.02;99034.78;5067265;28;20191;-57
2022/06/08 05:15:05;;;;;;;9.05;8.25;;;;;;;21.17;64.77;99033.22;5065790;28;20454;-57
2022/06/08 05:17:33;;;;;;;9.57;7.40;;;;;;;21.30;64.73;99044.09;5067375;28;20190;-57
2022/06/08 05:20:00;;;;;;;10.87;8.20;;;;;;;21.35;64.42;99037.81;5070797;28;20188;-57
2022/06/08 05:22:27;;;;;;;8.57;7.33;;;;;;;21.33;64.47;99044.00;5070755;28;20574;-56
2022/06/08 05:24:54;;;;;;;8.90;8.00;;;;;;;21.33;64.68;99034.41;5070734;28;20685;-56
2022/06/08 05:27:22;;;;;;;11.50;8.03;;;;;;;21.39;64.64;99042.03;5070759;28;20563;-57
2022/06/08 05:29:49;;;;;;;8.50;7.60;;;;;;;21.42;65.01;99041.09;5067182;28;20693;-55
2022/06/08 05:32:16;;;;;;;9.07;8.00;;;;;;;21.43;64.93;99033.16;5069062;28;20585;-56
2022/06/08 05:34:43;;;;;;;11.43;7.57;;;;;;;21.48;64.64;99048.72;5071106;28;20203;-55
2022/06/08 05:37:10;;;;;;;9.90;8.03;;;;;;;21.47;63.60;99039.16;5070798;28;20188;-56
2022/06/08 05:39:37;;;;;;;9.43;8.03;;;;;;;21.53;64.20;99036.34;5070476;28;20188;-55
2022/06/08 05:42:04;;;;;;;8.77;7.70;;;;;;;21.55;63.54;99048.44;5070213;28;20582;-55
2022/06/08 05:44:33;;;;;;;8.83;7.27;;;;;;;21.40;63.93;99016.75;5071066;28;20198;-56
2022/06/08 05:47:00;;;;;;;9.83;8.13;;;;;;;21.58;63.30;99037.88;5070744;28;20222;-56
2022/06/08 05:49:27;;;;;;;10.73;7.27;;;;;;;21.71;62.91;99040.88;5070570;28;20188;-56
2022/06/08 05:51:54;;;;;;;10.77;7.10;;;;;;;21.78;61.49;99048.44;5070368;28;20250;-56
2022/06/08 05:54:21;;;;;;;10.83;7.23;;;;;;;21.81;61.48;99046.66;5070672;28;20274;-57
2022/06/08 05:56:47;;;;;;;7.70;6.80;;;;;;;21.91;61.53;99040.22;5070320;28;20654;-56
2022/06/08 05:59:14;;;;;;;8.10;7.23;;;;;;;21.77;61.47;99036.31;5070731;28;20196;-56
2022/06/08 06:01:43;;;;;;;7.40;6.83;;;;;;;21.47;61.13;99034.78;5070416;28;20210;-56
2022/06/08 06:04:10;;;;;;;7.30;6.60;;;;;;;21.60;61.47;99024.72;5069492;28;20444;-56
2022/06/08 06:06:38;;;;;;;7.63;6.93;;;;;;;21.81;61.15;99026.56;5070437;28;20222;-56
2022/06/08 06:09:05;;;;;;;8.83;7.10;;;;;;;21.85;60.86;99017.72;5070139;28;20781;-56
2022/06/08 06:11:32;;;;;;;8.13;7.33;;;;;;;21.92;60.96;99028.84;5070744;28;20276;-56
2022/06/08 06:13:59;;;;;;;7.33;6.37;;;;;;;21.95;61.00;99020.88;5070200;28;20191;-56
2022/06/08 06:16:26;;;;;;;8.27;6.97;;;;;;;21.78;61.47;99024.09;5069246;28;20198;-56
2022/06/08 06:18:54;;;;;;;8.57;7.63;;;;;;;22.10;61.13;99015.06;5069582;28;20187;-57
2022/06/08 06:21:25;;;;;;;13.07;7.67;;;;;;;22.10;61.21;99020.28;5069317;28;20203;-57
2022/06/08 06:23:52;;;;;;;9.52;8.43;;;;;;;21.86;61.90;99015.94;5069401;28;20433;-57
2022/06/08 06:26:19;;;;;;;8.87;7.10;;;;;;;22.05;60.94;99015.25;5069909;28;20231;-57
2022/06/08 06:28:46;;;;;;;8.07;7.27;;;;;;;22.22;59.70;99017.22;5069919;28;20286;-57
2022/06/08 06:31:17;;;;;;;9.07;6.97;;;;;;;22.14;60.69;99019.28;5069830;28;20551;-57
2022/06/08 06:33:44;;;;;;;10.47;7.50;;;;;;;22.17;59.71;99019.13;5062122;28;20285;-57
2022/06/08 06:36:12;;;;;;;7.97;7.27;;;;;;;22.19;59.58;99025.19;5049956;28;20199;-57
2022/06/08 06:38:39;;;;;;;12.33;7.60;;;;;;;22.28;58.99;99027.44;5064400;28;20210;-57
2022/06/08 06:41:06;;;;;;;8.63;7.73;;;;;;;22.44;58.57;99014.63;5067643;28;20199;-57
2022/06/08 06:43:35;;;;;;;9.07;7.40;;;;;;;22.58;58.65;99022.78;5070097;28;20191;-57
2022/06/08 06:46:02;;;;;;;12.33;8.00;;;;;;;22.62;58.61;99030.44;5069616;28;20242;-57
2022/06/08 06:48:29;;;;;;;8.57;7.23;;;;;;;22.67;58.54;99020.66;5069164;28;20586;-55
2022/06/08 06:50:56;;;;;;;7.70;7.00;;;;;;;22.73;58.38;99017.81;5069036;28;20199;-56
2022/06/08 06:53:24;;;;;;;10.63;8.43;;;;;;;22.94;58.21;99017.88;5062651;28;20210;-55
2022/06/08 06:55:51;;;;;;;13.07;8.95;;;;;;;23.07;57.46;99017.28;5068767;28;20811;-56
2022/06/08 06:58:18;;;;;;;15.37;7.97;;;;;;;23.11;56.75;99008.34;5069606;28;20577;-55
2022/06/08 07:00:44;;;;;;;9.13;8.23;;;;;;;23.28;56.29;99011.13;5068601;28;20558;-56
2022/06/08 07:03:11;;;;;;;9.63;8.23;;;;;;;23.22;56.52;99008.75;5068071;28;20195;-56
2022/06/08 07:05:38;;;;;;;12.37;7.80;;;;;;;23.31;56.12;99002.28;5066672;28;20224;-57
2022/06/08 07:08:05;;;;;;;12.23;10.20;;;;;;;23.49;56.11;98998.88;5068287;28;20199;-57
2022/06/08 07:10:35;;;;;;;8.07;7.27;;;;;;;23.68;55.45;98994.50;5068084;28;20243;-57
2022/06/08 07:13:01;;;;;;;13.23;10.98;;;;;;;23.75;54.81;98990.72;5068720;28;20091;-57
2022/06/08 07:15:28;;;;;;;9.77;7.93;;;;;;;23.85;54.25;98991.13;5068496;28;20629;-57
2022/06/08 07:17:56;;;;;;;13.43;9.53;;;;;;;24.02;55.75;98988.59;5068353;28;20211;-57
2022/06/08 07:20:23;;;;;;;10.07;8.03;;;;;;;24.15;54.97;98992.38;5068661;28;20191;-57
2022/06/08 07:22:50;;;;;;;8.27;7.47;;;;;;;24.18;54.47;98989.59;5068931;28;20646;-57
2022/06/08 07:25:19;;;;;;;11.47;7.23;;;;;;;24.25;54.72;98979.69;5069948;28;20199;-56
2022/06/08 07:27:48;;;;;;;9.57;8.20;;;;;;;24.33;54.65;98986.28;5072680;28;20318;-55
2022/06/08 07:30:15;;;;;;;7.57;5.93;;;;;;;24.25;50.96;98984.94;5072543;28;20654;-56
2022/06/08 07:32:42;;;;;;;10.43;7.30;;;;;;;24.34;50.65;98979.22;5072625;28;20682;-56
2022/06/08 07:35:10;;;;;;;7.07;6.13;;;;;;;24.42;51.08;98987.63;5072971;28;20191;-56
2022/06/08 07:37:37;;;;;;;9.97;8.10;;;;;;;24.54;51.24;98976.50;5072366;28;20531;-56
2022/06/08 07:40:05;;;;;;;10.70;7.97;;;;;;;24.71;51.50;98978.31;5072424;28;20195;-56
2022/06/08 07:42:31;;;;;;;9.73;7.90;;;;;;;24.84;51.82;98984.69;5072601;28;20270;-55
2022/06/08 07:45:00;;;;;;;8.63;6.80;;;;;;;24.89;50.17;98980.91;5072452;28;20241;-55
2022/06/08 07:47:26;;;;;;;13.27;12.07;;;;;;;24.95;50.61;98977.97;5071189;28;20441;-55
2022/06/08 07:49:52;;;;;;;11.27;7.70;;;;;;;25.17;49.89;98983.00;5072485;28;20191;-56
2022/06/08 07:52:21;;;;;;;7.27;6.57;;;;;;;25.29;48.96;98981.53;5072302;28;20203;-55
2022/06/08 07:54:49;;;;;;;6.00;5.30;;;;;;;25.14;49.00;98981.38;5072287;28;20195;-57
2022/06/08 07:57:18;;;;;;;11.23;7.40;;;;;;;25.02;50.33;98975.91;5072265;28;20207;-56
2022/06/08 07:59:45;;;;;;;9.70;5.83;;;;;;;25.16;49.81;98984.75;5072204;28;20188;-56
2022/06/08 08:02:14;;;;;;;9.03;6.07;;;;;;;25.25;48.68;98980.81;5063127;28;20640;-56
2022/06/08 08:04:41;;;;;;;7.70;6.93;;;;;;;25.35;49.09;98983.84;5071829;28;20875;-56
2022/06/08 08:07:08;;;;;;;7.20;6.50;;;;;;;25.54;49.57;98981.97;5057366;28;20239;-56
2022/06/08 08:09:35;;;;;;;7.53;6.87;;;;;;;25.64;49.03;98988.44;5057031;28;20303;-56
2022/06/08 08:12:03;;;;;;;7.03;6.30;;;;;;;25.66;48.11;98976.91;5062910;28;20441;-57
2022/06/08 08:14:33;;;;;;;9.17;7.40;;;;;;;25.83;47.62;98981.28;5066031;28;20445;-56
2022/06/08 08:17:00;;;;;;;10.97;8.80;;;;;;;25.92;47.84;98972.88;5072076;28;20444;-56
2022/06/08 08:19:29;;;;;;;9.13;7.40;;;;;;;26.07;47.78;98972.03;5071804;28;20203;-57
2022/06/08 08:21:56;;;;;;;9.73;7.32;;;;;;;26.19;46.80;98975.81;5069989;28;20460;-56
2022/06/08 08:24:23;;;;;;;7.30;6.13;;;;;;;26.38;45.87;98968.59;5071491;28;20574;-56
2022/06/08 08:26:51;;;;;;;7.72;6.40;;;;;;;26.47;46.16;98973.34;5070925;28;20536;-56
2022/06/08 08:29:19;;;;;;;7.30;5.40;;;;;;;26.53;44.31;98972.16;5071796;28;20725;-56
2022/06/08 08:31:46;;;;;;;8.73;5.10;;;;;;;26.46;43.37;98981.31;5066958;28;20639;-56
2022/06/08 08:34:13;;;;;;;6.80;6.00;;;;;;;26.37;45.10;98980.03;5064235;28;20192;-56
2022/06/08 08:36:41;;;;;;;8.37;7.00;;;;;;;26.37;45.54;98982.69;5063614;28;20184;-56
2022/06/08 08:39:08;;;;;;;7.37;6.47;;;;;;;26.42;45.77;98985.06;5059191;28;20207;-56
2022/06/08 08:44:35;;;;;;;7.03;6.33;;;;;;;26.31;43.98;98981.25;5063628;28;20196;-56
2022/06/08 08:47:10;;;;;;;6.43;5.83;;;;;;;26.27;43.92;98990.25;5054106;28;20298;-56
2022/06/08 08:49:45;;;;;;;6.05;4.80;;;;;;;26.15;44.79;98974.28;5056312;28;20885;-57
2022/06/08 08:52:20;;;;;;;5.00;4.60;;;;;;;26.29;43.88;98977.84;5051867;28;20680;-56
2022/06/08 08:54:57;;;;;;;4.20;3.90;;;;;;;26.43;41.77;98978.84;5063550;28;20256;-56
2022/06/08 08:57:31;;;;;;;4.47;4.07;;;;;;;26.57;41.30;98974.50;5068329;28;20190;-55
2022/06/08 08:59:59;;;;;;;4.15;3.80;;;;;;;26.70;42.01;98969.41;5065178;28;20262;-63
2022/06/08 09:05:16;;;;;;;4.47;3.87;;;;;;;26.62;41.93;98955.78;5061129;28;20688;-63
2022/06/08 09:07:44;;;;;;;4.40;4.10;;;;;;;26.45;40.68;98967.31;5054807;28;20219;-63
2022/06/08 09:10:17;;;;;;;4.47;4.07;;;;;;;26.46;41.11;98968.13;5066630;28;20729;-63
2022/06/08 09:12:44;;;;;;;8.02;4.28;;;;;;;26.64;42.47;98961.84;5056956;28;20246;-63
2022/06/08 09:15:12;;;;;;;3.75;3.45;;;;;;;26.61;41.63;98964.66;5071361;28;20286;-63
2022/06/08 09:17:50;;;;;;;4.85;3.80;;;;;;;26.53;41.89;98964.25;5071368;28;20195;-63
2022/06/08 09:20:28;;;;;;;4.60;4.20;;;;;;;26.74;42.22;98961.22;5071077;28;20739;-62
2022/06/08 09:23:01;;;;;;;4.50;4.10;;;;;;;26.60;42.16;98952.41;5071266;28;20196;-63
2022/06/08 09:25:31;;;;;;;5.50;4.82;;;;;;;26.83;42.06;98958.09;5071360;28;20179;-64
2022/06/08 09:27:59;;;;;;;3.90;3.60;;;;;;;27.05;40.54;98948.91;5070994;28;20223;-64
2022/06/08 09:30:29;;;;;;;6.80;4.97;;;;;;;27.15;39.44;98952.69;5071473;28;20240;-64
2022/06/08 09:32:59;;;;;;;3.63;3.38;;;;;;;27.04;38.51;98945.41;5070930;28;20206;-64
2022/06/08 09:35:31;;;;;;;4.63;4.20;;;;;;;26.98;39.14;98940.50;5071052;28;20191;-62
2022/06/08 09:38:03;;;;;;;3.78;3.47;;;;;;;26.53;39.92;98906.25;5070786;28;20179;-64
2022/06/08 09:40:38;;;;;;;3.90;3.60;;;;;;;27.02;40.09;98941.16;5070613;28;20180;-64
2022/06/08 09:43:36;;;;;;;3.60;3.30;;;;;;;27.25;40.85;98930.94;5057580;28;20520;-63
2022/06/08 09:46:07;;;;;;;5.57;5.07;;;;;;;27.46;40.76;98931.47;5058320;28;20187;-57
2022/06/08 09:52:06;;;;;;;3.90;3.55;;;;;;;27.07;41.75;98931.19;5078045;28;20247;-56
2022/06/08 09:54:44;;;;;;;3.55;3.10;;;;;;;27.16;40.14;98928.88;5074784;28;20275;-57
2022/06/08 09:57:24;;;;;;;3.60;3.35;;;;;;;27.33;39.66;98923.41;5068172;28;20199;-57
2022/06/08 10:00:08;;;;;;;6.80;3.60;;;;;;;27.39;39.99;98925.66;5070307;28;20677;-57
2022/06/08 10:02:47;;;;;;;6.47;3.95;;;;;;;27.37;40.16;98922.28;5070078;28;20208;-57
2022/06/08 10:05:25;;;;;;;4.10;3.55;;;;;;;27.25;39.55;98925.66;5069987;28;20191;-57
2022/06/08 10:08:16;;;;;;;4.75;4.00;;;;;;;27.36;40.65;98914.47;5069927;28;20300;-57
2022/06/08 10:10:53;;;;;;;6.15;5.65;;;;;;;27.57;40.50;98912.31;5070047;28;20199;-57
2022/06/08 10:13:28;;;;;;;6.70;4.03;;;;;;;27.70;39.73;98913.25;5069433;28;20570;-58
2022/06/08 10:16:00;;;;;;;4.85;4.40;;;;;;;27.80;40.07;98909.91;5070574;28;20210;-58
2022/06/08 10:18:30;;;;;;;3.47;3.25;;;;;;;27.75;39.09;98896.16;5070202;28;20200;-58
2022/06/08 10:21:00;;;;;;;4.72;4.32;;;;;;;27.93;39.48;98902.09;5069980;28;20211;-57
2022/06/08 10:23:35;;;;;;;4.78;4.30;;;;;;;28.01;38.88;98898.03;5069499;28;20252;-57
2022/06/08 10:26:12;;;;;;;4.03;3.60;;;;;;;27.78;39.33;98901.25;5069624;28;20233;-57
2022/06/08 10:28:44;;;;;;;5.57;4.20;;;;;;;27.69;40.26;98898.38;5069851;28;20252;-57
2022/06/08 10:31:16;;;;;;;3.88;3.33;;;;;;;27.68;40.08;98891.38;5069809;28;20191;-57
2022/06/08 10:33:51;;;;;;;5.03;4.63;;;;;;;27.83;39.63;98885.97;5069716;28;20444;-57
2022/06/08 10:36:19;;;;;;;3.85;3.17;;;;;;;27.92;38.27;98893.31;5069156;28;20244;-57
2022/06/08 10:38:46;;;;;;;4.45;4.15;;;;;;;28.05;39.61;98891.59;5069397;28;20558;-56
2022/06/08 10:44:37;;;;;;;4.40;4.10;;;;;;;28.17;40.30;98868.84;5069833;28;20256;-56
2022/06/08 10:47:29;;;;;;;5.57;4.63;;;;;;;28.32;41.62;98859.88;5069759;28;20636;-57
2022/06/08 10:50:23;;;;;;;5.53;4.47;;;;;;;28.61;41.02;98866.75;5066037;28;20203;-57
2022/06/08 10:52:51;;;;;;;4.68;4.20;;;;;;;28.78;40.47;98856.84;5057378;28;20199;-57
2022/06/08 10:55:36;;;;;;;5.05;4.55;;;;;;;28.90;39.57;98856.84;5064048;28;20196;-56
2022/06/08 10:58:08;;;;;;;6.32;4.35;;;;;;;28.81;38.60;98857.50;5067004;28;20187;-57
2022/06/08 11:00:57;;;;;;;4.90;4.28;;;;;;;28.78;38.86;98847.13;5069247;28;20210;-56
2022/06/08 11:03:36;;;;;;;3.80;3.50;;;;;;;28.88;38.15;98847.34;5068782;28;20195;-56
2022/06/08 11:06:09;;;;;;;4.63;3.50;;;;;;;28.98;37.19;98838.66;5068886;28;20594;-63
2022/06/08 11:08:51;;;;;;;6.18;3.95;;;;;;;29.04;37.81;98840.03;5069436;28;20223;-62
2022/06/08 11:11:40;;;;;;;3.92;3.58;;;;;;;28.80;38.54;98823.22;5069327;28;20191;-64
2022/06/08 11:14:28;;;;;;;4.15;3.63;;;;;;;28.52;37.21;98819.75;5068823;28;20256;-64
2022/06/08 11:16:59;;;;;;;3.53;3.30;;;;;;;28.25;36.28;98818.97;5059146;28;20594;-63
2022/06/08 11:19:27;;;;;;;3.28;3.08;;;;;;;28.22;36.66;98813.91;5049874;28;20264;-64
2022/06/08 11:21:58;;;;;;;4.25;3.85;;;;;;;28.24;37.84;98813.81;5069282;28;20677;-65
2022/06/08 11:24:29;;;;;;;5.40;4.13;;;;;;;28.52;38.39;98803.91;5069386;28;20286;-65
2022/06/08 11:27:31;;;;;;;5.10;4.60;;;;;;;28.81;39.46;98804.59;5068731;28;20446;-64
2022/06/08 11:30:01;;;;;;;7.10;4.47;;;;;;;28.98;38.13;98808.72;5046389;28;20241;-64
2022/06/08 11:33:10;;;;;;;6.63;3.70;;;;;;;28.88;38.25;98807.66;5046182;28;20203;-64
2022/06/08 11:35:50;;;;;;;3.70;3.35;;;;;;;28.86;37.87;98805.13;5056203;28;20640;-64
2022/06/08 11:38:28;;;;;;;5.40;4.88;;;;;;;29.13;38.11;98799.72;5068937;28;20298;-64
2022/06/08 11:41:14;;;;;;;6.40;4.13;;;;;;;29.22;37.19;98793.81;5068877;28;20188;-64
2022/06/08 11:43:42;;;;;;;4.55;3.88;;;;;;;29.16;37.48;98808.28;5068459;28;20192;-64
2022/06/08 11:46:24;;;;;;;3.90;3.53;;;;;;;28.93;38.73;98797.59;5068807;28;20727;-64
2022/06/08 11:48:52;;;;;;;9.63;6.45;;;;;;;29.09;39.25;98790.31;5068870;28;20655;-64
2022/06/08 11:51:36;;;;;;;5.20;4.80;;;;;;;29.19;39.23;98794.84;5068595;28;20673;-63
2022/06/08 11:54:18;;;;;;;6.72;4.47;;;;;;;29.37;38.43;98792.69;5068899;28;20188;-63
2022/06/08 11:56:59;;;;;;;4.30;3.90;;;;;;;29.58;37.95;98790.31;5069306;28;20275;-63
2022/06/08 11:59:26;;;;;;;6.10;4.28;;;;;;;29.37;37.93;98792.69;5069644;28;20230;-63